sensor_id;sensor_type;location;lat;lon;timestamp;pressure;altitude;pressure_sealevel;temperature;humidity
55317;BME280;41178;48.956;8.130;2023-03-13T00:02:35;99089.56;;;12.29;44.72
55317;BME280;41178;48.956;8.130;2023-03-13T00:07:37;99077.94;;;14.25;43.03
55317;BME280;41178;48.956;8.130;2023-03-13T00:12:38;99091.94;;;12.89;43.57
55317;BME280;41178;48.956;8.130;2023-03-13T00:17:40;99100.78;;;14.15;42.97
55317;BME280;41178;48.956;8.130;2023-03-13T00:22:42;99091.44;;;13.81;43.37
55317;BME280;41178;48.956;8.130;2023-03-13T00:27:43;99065.66;;;12.98;44.37
55317;BME280;41178;48.956;8.130;2023-03-13T00:32:46;99024.66;;;14.45;42.55
55317;BME280;41178;48.956;8.130;2023-03-13T00:37:49;98972.81;;;15.39;41.16
55317;BME280;41178;48.956;8.130;2023-03-13T00:42:50;99048.25;;;14.31;42.89
55317;BME280;41178;48.956;8.130;2023-03-13T00:47:52;98991.72;;;12.31;44.72
55317;BME280;41178;48.956;8.130;2023-03-13T00:52:54;99044.25;;;13.16;43.26
55317;BME280;41178;48.956;8.130;2023-03-13T00:57:55;99050.88;;;13.14;44.46
55317;BME280;41178;48.956;8.130;2023-03-13T01:02:57;98909.78;;;15.28;42.25
55317;BME280;41178;48.956;8.130;2023-03-13T01:07:59;98897.16;;;11.72;45.51
55317;BME280;41178;48.956;8.130;2023-03-13T01:13:01;99015.78;;;13.08;44.55
55317;BME280;41178;48.956;8.130;2023-03-13T01:18:05;98964.09;;;14.24;43.82
55317;BME280;41178;48.956;8.130;2023-03-13T01:23:07;99022.09;;;13.46;43.54
55317;BME280;41178;48.956;8.130;2023-03-13T01:28:09;99014.03;;;14.20;43.30
55317;BME280;41178;48.956;8.130;2023-03-13T01:33:11;98999.50;;;14.09;42.44
55317;BME280;41178;48.956;8.130;2023-03-13T01:38:13;98940.75;;;15.02;42.50
55317;BME280;41178;48.956;8.130;2023-03-13T01:43:23;98882.84;;;15.81;41.96
55317;BME280;41178;48.956;8.130;2023-03-13T01:48:41;98881.75;;;15.82;42.14
55317;BME280;41178;48.956;8.130;2023-03-13T01:53:46;98946.50;;;14.52;43.90
55317;BME280;41178;48.956;8.130;2023-03-13T01:58:51;98856.88;;;15.51;42.33
55317;BME280;41178;48.956;8.130;2023-03-13T02:03:55;98877.66;;;15.39;43.07
55317;BME280;41178;48.956;8.130;2023-03-13T02:09:07;98954.00;;;13.34;46.51
55317;BME280;41178;48.956;8.130;2023-03-13T02:14:11;98936.13;;;14.25;45.10
55317;BME280;41178;48.956;8.130;2023-03-13T02:19:18;98954.66;;;13.66;46.32
55317;BME280;41178;48.956;8.130;2023-03-13T02:24:44;98909.94;;;14.32;46.25
55317;BME280;41178;48.956;8.130;2023-03-13T02:29:48;98919.72;;;13.66;46.56
55317;BME280;41178;48.956;8.130;2023-03-13T02:34:54;98853.41;;;14.20;47.17
55317;BME280;41178;48.956;8.130;2023-03-13T02:40:00;98763.22;;;15.58;44.94
55317;BME280;41178;48.956;8.130;2023-03-13T02:45:04;98916.66;;;13.62;47.24
55317;BME280;41178;48.956;8.130;2023-03-13T02:50:05;98858.13;;;14.49;45.30
55317;BME280;41178;48.956;8.130;2023-03-13T02:55:25;98755.38;;;15.91;44.33
55317;BME280;41178;48.956;8.130;2023-03-13T03:00:28;98782.97;;;15.35;45.56
55317;BME280;41178;48.956;8.130;2023-03-13T03:05:30;98829.00;;;14.57;45.93
55317;BME280;41178;48.956;8.130;2023-03-13T03:10:35;98749.84;;;15.51;45.37
55317;BME280;41178;48.956;8.130;2023-03-13T03:15:37;98746.00;;;16.88;43.99
55317;BME280;41178;48.956;8.130;2023-03-13T03:20:39;98786.19;;;15.61;45.52
55317;BME280;41178;48.956;8.130;2023-03-13T03:25:40;98752.19;;;15.60;45.57
55317;BME280;41178;48.956;8.130;2023-03-13T03:30:42;98770.91;;;15.66;45.96
55317;BME280;41178;48.956;8.130;2023-03-13T03:35:44;98771.94;;;15.37;45.71
55317;BME280;41178;48.956;8.130;2023-03-13T03:40:46;98774.56;;;15.60;45.83
55317;BME280;41178;48.956;8.130;2023-03-13T03:45:48;98751.38;;;16.44;44.87
55317;BME280;41178;48.956;8.130;2023-03-13T03:50:49;98739.25;;;16.64;44.06
55317;BME280;41178;48.956;8.130;2023-03-13T03:55:51;98756.69;;;15.71;44.81
55317;BME280;41178;48.956;8.130;2023-03-13T04:00:55;98722.38;;;16.56;44.55
55317;BME280;41178;48.956;8.130;2023-03-13T04:05:57;98712.66;;;16.55;43.80
55317;BME280;41178;48.956;8.130;2023-03-13T04:10:59;98713.63;;;15.76;44.67
55317;BME280;41178;48.956;8.130;2023-03-13T04:16:08;98765.09;;;15.58;44.31
55317;BME280;41178;48.956;8.130;2023-03-13T04:21:10;98727.84;;;15.72;44.94
55317;BME280;41178;48.956;8.130;2023-03-13T04:26:12;98773.09;;;15.12;46.27
55317;BME280;41178;48.956;8.130;2023-03-13T04:31:13;98719.19;;;16.03;45.25
55317;BME280;41178;48.956;8.130;2023-03-13T04:36:15;98731.19;;;16.30;44.26
55317;BME280;41178;48.956;8.130;2023-03-13T04:41:17;98764.47;;;15.84;44.86
55317;BME280;41178;48.956;8.130;2023-03-13T04:46:19;98716.41;;;15.98;44.62
55317;BME280;41178;48.956;8.130;2023-03-13T04:51:20;98786.53;;;15.81;44.91
55317;BME280;41178;48.956;8.130;2023-03-13T04:56:24;98759.13;;;15.27;45.84
55317;BME280;41178;48.956;8.130;2023-03-13T05:01:43;98753.84;;;15.49;46.70
55317;BME280;41178;48.956;8.130;2023-03-13T05:06:45;98733.06;;;15.61;46.39
55317;BME280;41178;48.956;8.130;2023-03-13T05:11:46;98794.31;;;14.02;48.15
55317;BME280;41178;48.956;8.130;2023-03-13T05:16:48;98745.50;;;15.22;47.08
55317;BME280;41178;48.956;8.130;2023-03-13T05:21:50;98834.56;;;13.78;49.85
55317;BME280;41178;48.956;8.130;2023-03-13T05:26:51;98759.34;;;14.97;47.13
55317;BME280;41178;48.956;8.130;2023-03-13T05:31:53;98716.72;;;16.58;45.86
55317;BME280;41178;48.956;8.130;2023-03-13T05:36:55;98742.72;;;16.42;46.01
55317;BME280;41178;48.956;8.130;2023-03-13T05:41:57;98727.28;;;15.69;47.13
55317;BME280;41178;48.956;8.130;2023-03-13T05:46:58;98734.22;;;15.82;46.82
55317;BME280;41178;48.956;8.130;2023-03-13T05:52:00;98724.00;;;16.35;45.53
55317;BME280;41178;48.956;8.130;2023-03-13T05:57:02;98746.41;;;15.85;47.00
55317;BME280;41178;48.956;8.130;2023-03-13T06:02:03;98741.44;;;15.48;47.66
55317;BME280;41178;48.956;8.130;2023-03-13T06:07:05;98705.56;;;16.49;46.35
55317;BME280;41178;48.956;8.130;2023-03-13T06:12:08;98727.44;;;15.97;47.59
55317;BME280;41178;48.956;8.130;2023-03-13T06:17:11;98799.97;;;14.24;49.22
55317;BME280;41178;48.956;8.130;2023-03-13T06:22:12;98768.06;;;15.16;47.60
55317;BME280;41178;48.956;8.130;2023-03-13T06:27:16;98713.84;;;16.25;46.84
55317;BME280;41178;48.956;8.130;2023-03-13T06:32:18;98740.66;;;15.64;47.41
55317;BME280;41178;48.956;8.130;2023-03-13T06:37:19;98716.78;;;16.63;46.57
55317;BME280;41178;48.956;8.130;2023-03-13T06:42:21;98733.13;;;17.67;45.37
55317;BME280;41178;48.956;8.130;2023-03-13T06:47:23;98703.88;;;16.65;46.03
55317;BME280;41178;48.956;8.130;2023-03-13T06:52:25;98835.78;;;14.72;49.46
55317;BME280;41178;48.956;8.130;2023-03-13T06:57:41;98725.59;;;16.19;47.57
55317;BME280;41178;48.956;8.130;2023-03-13T07:02:43;98715.00;;;16.30;47.35
55317;BME280;41178;48.956;8.130;2023-03-13T07:07:44;98782.75;;;14.25;51.03
55317;BME280;41178;48.956;8.130;2023-03-13T07:12:46;98682.59;;;16.47;47.65
55317;BME280;41178;48.956;8.130;2023-03-13T07:17:48;98647.94;;;16.21;47.95
55317;BME280;41178;48.956;8.130;2023-03-13T07:22:51;98766.16;;;14.52;49.92
55317;BME280;41178;48.956;8.130;2023-03-13T07:27:53;98739.22;;;15.16;49.40
55317;BME280;41178;48.956;8.130;2023-03-13T07:32:55;98723.75;;;13.34;51.55
55317;BME280;41178;48.956;8.130;2023-03-13T07:37:57;98753.22;;;14.77;49.70
55317;BME280;41178;48.956;8.130;2023-03-13T07:42:58;98661.28;;;15.94;49.28
55317;BME280;41178;48.956;8.130;2023-03-13T07:48:00;98649.06;;;15.69;48.03
55317;BME280;41178;48.956;8.130;2023-03-13T07:53:01;98671.09;;;17.28;46.66
55317;BME280;41178;48.956;8.130;2023-03-13T07:58:03;98658.44;;;17.66;45.63
55317;BME280;41178;48.956;8.130;2023-03-13T08:03:05;98685.03;;;16.70;47.92
55317;BME280;41178;48.956;8.130;2023-03-13T08:08:08;98639.41;;;16.96;46.14
55317;BME280;41178;48.956;8.130;2023-03-13T08:13:10;98728.66;;;16.06;48.14
55317;BME280;41178;48.956;8.130;2023-03-13T08:18:12;98655.66;;;17.61;45.62
55317;BME280;41178;48.956;8.130;2023-03-13T08:23:13;98662.72;;;17.29;46.29
55317;BME280;41178;48.956;8.130;2023-03-13T08:28:15;98686.00;;;17.08;46.58
55317;BME280;41178;48.956;8.130;2023-03-13T08:33:17;98666.22;;;19.16;43.67
55317;BME280;41178;48.956;8.130;2023-03-13T08:38:19;98629.72;;;17.60;45.59
55317;BME280;41178;48.956;8.130;2023-03-13T08:43:21;98695.81;;;16.48;47.84
55317;BME280;41178;48.956;8.130;2023-03-13T08:48:22;98646.06;;;16.66;46.34
55317;BME280;41178;48.956;8.130;2023-03-13T08:53:24;98623.59;;;18.86;44.30
55317;BME280;41178;48.956;8.130;2023-03-13T08:58:26;98677.66;;;15.70;47.62
55317;BME280;41178;48.956;8.130;2023-03-13T09:03:28;98593.16;;;18.48;44.63
55317;BME280;41178;48.956;8.130;2023-03-13T09:08:31;98582.31;;;17.95;44.51
55317;BME280;41178;48.956;8.130;2023-03-13T09:13:35;98650.56;;;17.05;45.75
55317;BME280;41178;48.956;8.130;2023-03-13T09:18:37;98501.91;;;19.30;42.83
55317;BME280;41178;48.956;8.130;2023-03-13T09:23:39;98565.06;;;16.66;45.42
55317;BME280;41178;48.956;8.130;2023-03-13T09:28:42;98518.03;;;18.27;43.85
55317;BME280;41178;48.956;8.130;2023-03-13T09:33:45;98541.78;;;19.09;42.55
55317;BME280;41178;48.956;8.130;2023-03-13T09:38:52;98542.81;;;18.82;42.74
55317;BME280;41178;48.956;8.130;2023-03-13T09:54:40;98436.75;;;20.61;41.22
55317;BME280;41178;48.956;8.130;2023-03-13T09:59:50;98456.19;;;20.39;41.09
55317;BME280;41178;48.956;8.130;2023-03-13T10:05:02;98405.84;;;22.59;38.67
55317;BME280;41178;48.956;8.130;2023-03-13T10:10:13;98450.50;;;19.85;42.03
55317;BME280;41178;48.956;8.130;2023-03-13T10:15:36;98471.56;;;18.82;43.02
55317;BME280;41178;48.956;8.130;2023-03-13T10:20:39;98474.25;;;18.51;43.28
55317;BME280;41178;48.956;8.130;2023-03-13T10:25:41;98462.09;;;18.95;42.70
55317;BME280;41178;48.956;8.130;2023-03-13T10:30:47;98470.19;;;19.31;43.22
55317;BME280;41178;48.956;8.130;2023-03-13T10:36:09;98415.75;;;18.45;43.57
55317;BME280;41178;48.956;8.130;2023-03-13T10:41:32;98417.91;;;18.79;43.33
55317;BME280;41178;48.956;8.130;2023-03-13T10:46:40;98397.41;;;20.88;42.14
55317;BME280;41178;48.956;8.130;2023-03-13T10:52:02;98294.78;;;22.18;39.55
55317;BME280;41178;48.956;8.130;2023-03-13T11:06:35;98430.75;;;16.89;48.65
55317;BME280;41178;48.956;8.130;2023-03-13T11:11:54;98364.81;;;18.32;46.52
55317;BME280;41178;48.956;8.130;2023-03-13T11:17:28;98404.81;;;17.35;47.37
55317;BME280;41178;48.956;8.130;2023-03-13T11:22:39;98336.06;;;18.77;45.67
55317;BME280;41178;48.956;8.130;2023-03-13T11:28:09;98354.00;;;18.32;44.89
55317;BME280;41178;48.956;8.130;2023-03-13T11:33:35;98337.75;;;18.62;45.23
55317;BME280;41178;48.956;8.130;2023-03-13T11:38:41;98256.34;;;19.98;43.20
55317;BME280;41178;48.956;8.130;2023-03-13T11:49:44;98268.97;;;20.72;41.98
55317;BME280;41178;48.956;8.130;2023-03-13T12:04:58;98216.56;;;20.66;41.19
55317;BME280;41178;48.956;8.130;2023-03-13T12:15:14;98173.25;;;20.99;41.60
55317;BME280;41178;48.956;8.130;2023-03-13T12:31:27;98188.38;;;20.86;40.37
55317;BME280;41178;48.956;8.130;2023-03-13T12:52:49;98102.56;;;20.80;39.70
55317;BME280;41178;48.956;8.130;2023-03-13T12:58:08;98066.75;;;20.73;39.42
55317;BME280;41178;48.956;8.130;2023-03-13T13:09:12;98053.06;;;22.09;39.12
55317;BME280;41178;48.956;8.130;2023-03-13T13:24:48;98059.72;;;20.72;40.68
55317;BME280;41178;48.956;8.130;2023-03-13T13:29:55;98019.00;;;20.66;40.41
55317;BME280;41178;48.956;8.130;2023-03-13T13:45:27;97956.50;;;21.32;39.64
55317;BME280;41178;48.956;8.130;2023-03-13T13:50:29;97996.03;;;20.78;40.70
55317;BME280;41178;48.956;8.130;2023-03-13T14:00:42;97889.53;;;21.22;39.29
55317;BME280;41178;48.956;8.130;2023-03-13T14:05:47;97869.41;;;21.88;38.92
55317;BME280;41178;48.956;8.130;2023-03-13T14:11:21;97856.44;;;21.71;39.02
55317;BME280;41178;48.956;8.130;2023-03-13T14:16:25;97882.63;;;20.64;40.22
55317;BME280;41178;48.956;8.130;2023-03-13T14:21:27;97875.13;;;21.64;39.36
55317;BME280;41178;48.956;8.130;2023-03-13T14:26:29;97786.97;;;22.55;37.54
55317;BME280;41178;48.956;8.130;2023-03-13T14:31:36;97835.94;;;22.46;37.44
55317;BME280;41178;48.956;8.130;2023-03-13T14:41:50;97767.50;;;23.19;36.60
55317;BME280;41178;48.956;8.130;2023-03-13T14:46:58;97770.75;;;23.21;36.77
55317;BME280;41178;48.956;8.130;2023-03-13T14:52:06;97722.78;;;23.73;36.74
55317;BME280;41178;48.956;8.130;2023-03-13T14:57:16;97717.00;;;24.00;35.80
55317;BME280;41178;48.956;8.130;2023-03-13T15:05:32;97787.34;;;20.09;41.03
55317;BME280;41178;48.956;8.130;2023-03-13T15:10:35;97779.84;;;19.87;40.29
55317;BME280;41178;48.956;8.130;2023-03-13T15:15:37;97758.09;;;20.25;39.99
55317;BME280;41178;48.956;8.130;2023-03-13T15:20:39;97729.81;;;20.26;40.14
55317;BME280;41178;48.956;8.130;2023-03-13T15:25:40;97693.16;;;21.48;38.22
55317;BME280;41178;48.956;8.130;2023-03-13T15:30:43;97658.28;;;22.76;38.20
55317;BME280;41178;48.956;8.130;2023-03-13T15:35:46;97643.72;;;22.80;37.90
55317;BME280;41178;48.956;8.130;2023-03-13T15:40:48;97690.06;;;21.64;37.30
55317;BME280;41178;48.956;8.130;2023-03-13T15:45:50;97688.88;;;21.56;37.38
55317;BME280;41178;48.956;8.130;2023-03-13T15:50:58;97677.41;;;21.82;37.25
55317;BME280;41178;48.956;8.130;2023-03-13T15:56:01;97655.47;;;22.09;36.61
55317;BME280;41178;48.956;8.130;2023-03-13T16:01:03;97635.81;;;22.21;36.80
55317;BME280;41178;48.956;8.130;2023-03-13T16:06:23;97658.72;;;21.30;37.13
55317;BME280;41178;48.956;8.130;2023-03-13T16:11:32;97648.25;;;21.37;36.47
55317;BME280;41178;48.956;8.130;2023-03-13T16:16:34;97623.66;;;22.67;35.78
55317;BME280;41178;48.956;8.130;2023-03-13T16:21:38;97647.19;;;21.92;36.56
55317;BME280;41178;48.956;8.130;2023-03-13T16:26:44;97641.81;;;22.01;36.76
55317;BME280;41178;48.956;8.130;2023-03-13T16:31:45;97582.81;;;22.27;35.89
55317;BME280;41178;48.956;8.130;2023-03-13T16:36:47;97625.69;;;21.82;36.35
55317;BME280;41178;48.956;8.130;2023-03-13T16:41:49;97657.34;;;21.18;37.47
55317;BME280;41178;48.956;8.130;2023-03-13T16:46:50;97602.47;;;22.56;36.52
55317;BME280;41178;48.956;8.130;2023-03-13T16:52:12;97636.69;;;21.54;37.54
55317;BME280;41178;48.956;8.130;2023-03-13T16:57:16;97647.16;;;20.46;38.92
55317;BME280;41178;48.956;8.130;2023-03-13T17:02:19;97601.81;;;21.33;38.60
55317;BME280;41178;48.956;8.130;2023-03-13T17:07:23;97710.72;;;18.79;42.78
55317;BME280;41178;48.956;8.130;2023-03-13T17:12:25;97670.63;;;17.34;44.41
55317;BME280;41178;48.956;8.130;2023-03-13T17:17:27;97765.72;;;17.42;46.33
55317;BME280;41178;48.956;8.130;2023-03-13T17:22:29;97739.41;;;17.08;47.67
55317;BME280;41178;48.956;8.130;2023-03-13T17:27:31;97729.50;;;16.77;48.60
55317;BME280;41178;48.956;8.130;2023-03-13T17:32:32;97743.88;;;16.52;49.58
55317;BME280;41178;48.956;8.130;2023-03-13T17:37:34;97739.31;;;17.73;48.82
55317;BME280;41178;48.956;8.130;2023-03-13T17:42:36;97781.84;;;17.57;48.77
55317;BME280;41178;48.956;8.130;2023-03-13T17:47:39;97814.25;;;17.12;49.32
55317;BME280;41178;48.956;8.130;2023-03-13T17:52:41;97823.72;;;16.89;51.27
55317;BME280;41178;48.956;8.130;2023-03-13T17:57:43;97745.38;;;17.49;50.61
55317;BME280;41178;48.956;8.130;2023-03-13T18:02:44;97778.19;;;17.32;50.52
55317;BME280;41178;48.956;8.130;2023-03-13T18:07:47;97695.69;;;18.14;49.17
55317;BME280;41178;48.956;8.130;2023-03-13T18:12:50;97724.31;;;17.91;47.85
55317;BME280;41178;48.956;8.130;2023-03-13T18:17:52;97714.72;;;19.30;46.35
55317;BME280;41178;48.956;8.130;2023-03-13T18:22:54;97767.31;;;18.32;47.14
55317;BME280;41178;48.956;8.130;2023-03-13T18:28:00;97671.81;;;20.36;45.55
55317;BME280;41178;48.956;8.130;2023-03-13T18:33:01;97739.91;;;18.63;47.31
55317;BME280;41178;48.956;8.130;2023-03-13T18:38:03;97732.66;;;19.07;47.05
55317;BME280;41178;48.956;8.130;2023-03-13T18:43:04;97633.31;;;21.79;41.57
55317;BME280;41178;48.956;8.130;2023-03-13T18:48:09;97694.22;;;21.61;42.30
55317;BME280;41178;48.956;8.130;2023-03-13T18:53:11;97694.97;;;21.75;41.78
55317;BME280;41178;48.956;8.130;2023-03-13T18:58:12;97850.22;;;19.35;45.37
55317;BME280;41178;48.956;8.130;2023-03-13T19:03:15;97883.97;;;19.48;45.57
55317;BME280;41178;48.956;8.130;2023-03-13T19:08:20;98038.19;;;16.93;50.52
55317;BME280;41178;48.956;8.130;2023-03-13T19:13:22;97997.50;;;13.67;54.31
55317;BME280;41178;48.956;8.130;2023-03-13T19:18:23;98083.97;;;12.97;55.01
55317;BME280;41178;48.956;8.130;2023-03-13T19:23:25;98138.00;;;12.60;54.10
55317;BME280;41178;48.956;8.130;2023-03-13T19:28:27;98066.81;;;12.98;54.12
55317;BME280;41178;48.956;8.130;2023-03-13T19:33:28;98066.25;;;14.19;51.67
55317;BME280;41178;48.956;8.130;2023-03-13T19:38:30;98037.25;;;15.36;49.48
55317;BME280;41178;48.956;8.130;2023-03-13T19:43:31;98124.72;;;15.23;48.81
55317;BME280;41178;48.956;8.130;2023-03-13T19:48:33;98074.25;;;16.36;47.23
55317;BME280;41178;48.956;8.130;2023-03-13T19:53:35;97974.88;;;19.93;42.31
55317;BME280;41178;48.956;8.130;2023-03-13T19:58:36;98011.44;;;19.24;43.44
55317;BME280;41178;48.956;8.130;2023-03-13T20:03:38;98023.00;;;18.55;43.98
55317;BME280;41178;48.956;8.130;2023-03-13T20:08:40;98168.63;;;15.78;48.52
55317;BME280;41178;48.956;8.130;2023-03-13T20:13:41;98112.09;;;15.98;48.12
55317;BME280;41178;48.956;8.130;2023-03-13T20:18:44;98081.31;;;13.64;52.70
55317;BME280;41178;48.956;8.130;2023-03-13T20:23:49;98094.59;;;14.49;52.60
55317;BME280;41178;48.956;8.130;2023-03-13T20:28:52;98035.63;;;15.02;51.94
55317;BME280;41178;48.956;8.130;2023-03-13T20:33:55;98091.66;;;13.56;54.90
55317;BME280;41178;48.956;8.130;2023-03-13T20:38:57;98027.78;;;14.95;52.63
55317;BME280;41178;48.956;8.130;2023-03-13T20:43:58;98077.94;;;12.89;55.71
55317;BME280;41178;48.956;8.130;2023-03-13T20:49:00;98059.47;;;13.78;54.73
55317;BME280;41178;48.956;8.130;2023-03-13T20:54:02;98070.75;;;14.36;53.22
55317;BME280;41178;48.956;8.130;2023-03-13T20:59:03;98089.88;;;14.39;52.82
55317;BME280;41178;48.956;8.130;2023-03-13T21:04:05;98118.94;;;13.64;52.79
55317;BME280;41178;48.956;8.130;2023-03-13T21:09:07;98063.19;;;14.82;51.81
55317;BME280;41178;48.956;8.130;2023-03-13T21:14:08;98088.94;;;13.05;54.01
55317;BME280;41178;48.956;8.130;2023-03-13T21:19:10;98073.66;;;14.56;51.63
55317;BME280;41178;48.956;8.130;2023-03-13T21:24:12;98108.84;;;13.72;53.05
55317;BME280;41178;48.956;8.130;2023-03-13T21:29:13;98045.91;;;14.78;51.62
55317;BME280;41178;48.956;8.130;2023-03-13T21:34:15;98048.34;;;15.07;50.78
55317;BME280;41178;48.956;8.130;2023-03-13T21:39:16;98137.50;;;13.49;53.13
55317;BME280;41178;48.956;8.130;2023-03-13T21:44:19;98097.03;;;13.73;52.54
55317;BME280;41178;48.956;8.130;2023-03-13T21:49:20;98140.13;;;13.15;52.64
55317;BME280;41178;48.956;8.130;2023-03-13T21:54:23;98042.78;;;13.76;53.35
55317;BME280;41178;48.956;8.130;2023-03-13T21:59:25;98141.53;;;12.25;54.34
55317;BME280;41178;48.956;8.130;2023-03-13T22:04:28;98159.03;;;12.51;54.42
55317;BME280;41178;48.956;8.130;2023-03-13T22:09:30;98107.97;;;12.74;54.51
55317;BME280;41178;48.956;8.130;2023-03-13T22:14:31;98156.59;;;12.26;54.39
55317;BME280;41178;48.956;8.130;2023-03-13T22:19:33;98137.03;;;11.66;55.37
55317;BME280;41178;48.956;8.130;2023-03-13T22:24:35;98128.38;;;12.23;54.30
55317;BME280;41178;48.956;8.130;2023-03-13T22:29:36;98039.19;;;13.87;51.24
55317;BME280;41178;48.956;8.130;2023-03-13T22:34:38;98103.31;;;13.61;51.76
55317;BME280;41178;48.956;8.130;2023-03-13T22:39:45;97995.00;;;14.76;50.07
55317;BME280;41178;48.956;8.130;2023-03-13T22:44:47;98038.47;;;14.36;50.71
55317;BME280;41178;48.956;8.130;2023-03-13T22:49:48;98054.44;;;16.10;47.56
55317;BME280;41178;48.956;8.130;2023-03-13T22:54:50;98141.44;;;13.58;50.94
55317;BME280;41178;48.956;8.130;2023-03-13T22:59:52;98086.78;;;14.09;50.81
55317;BME280;41178;48.956;8.130;2023-03-13T23:04:54;98160.16;;;14.04;50.04
55317;BME280;41178;48.956;8.130;2023-03-13T23:09:58;98136.19;;;14.02;49.17
55317;BME280;41178;48.956;8.130;2023-03-13T23:14:59;98166.34;;;13.88;50.02
55317;BME280;41178;48.956;8.130;2023-03-13T23:20:03;98151.13;;;14.32;50.29
55317;BME280;41178;48.956;8.130;2023-03-13T23:25:13;98137.00;;;14.86;49.13
55317;BME280;41178;48.956;8.130;2023-03-13T23:30:16;98077.97;;;15.77;46.87
55317;BME280;41178;48.956;8.130;2023-03-13T23:35:18;98115.00;;;15.22;48.60
55317;BME280;41178;48.956;8.130;2023-03-13T23:40:21;98173.09;;;14.24;49.76
55317;BME280;41178;48.956;8.130;2023-03-13T23:45:23;98139.31;;;14.33;50.92
55317;BME280;41178;48.956;8.130;2023-03-13T23:50:25;98231.34;;;13.67;50.94
55317;BME280;41178;48.956;8.130;2023-03-13T23:55:26;98167.25;;;14.49;48.71
